createdAt,value
2019-03-12T00:00:12.645Z,63.80
2019-03-12T00:02:40.337Z,63.00
2019-03-12T00:05:08.067Z,63.30
2019-03-12T00:07:35.724Z,64.20
2019-03-12T00:10:03.853Z,64.60
2019-03-12T00:12:31.513Z,64.60
2019-03-12T00:15:00.375Z,65.10
2019-03-12T00:17:28.069Z,64.10
2019-03-12T00:19:55.784Z,63.60
2019-03-12T00:22:23.398Z,64.60
2019-03-12T00:24:51.030Z,64.30
2019-03-12T00:27:18.661Z,64.50
2019-03-12T00:29:46.288Z,64.90
2019-03-12T00:32:13.868Z,64.70
2019-03-12T00:34:41.836Z,65.30
2019-03-12T00:37:09.488Z,64.90
2019-03-12T00:39:37.193Z,64.40
2019-03-12T00:42:04.793Z,64.20
2019-03-12T00:44:32.561Z,63.30
2019-03-12T00:47:19.559Z,63.00
2019-03-12T00:49:59.471Z,63.70
2019-03-12T00:52:39.978Z,64.00
2019-03-12T00:55:19.948Z,64.40
2019-03-12T00:58:00.205Z,64.80
2019-03-12T01:00:40.354Z,65.60
2019-03-12T01:03:20.883Z,65.30
2019-03-12T01:06:01.726Z,65.40
2019-03-12T01:08:41.793Z,65.70
2019-03-12T01:11:21.916Z,65.30
2019-03-12T01:14:02.039Z,65.00
2019-03-12T01:16:42.368Z,65.30
2019-03-12T01:19:22.268Z,65.00
2019-03-12T01:22:02.400Z,65.50
2019-03-12T01:24:42.453Z,64.90
2019-03-12T01:27:22.661Z,65.20
2019-03-12T01:30:03.370Z,65.60
2019-03-12T01:32:43.297Z,66.00
2019-03-12T01:35:23.125Z,64.60
2019-03-12T01:38:03.224Z,65.40
2019-03-12T01:40:43.329Z,65.90
2019-03-12T01:43:25.632Z,66.70
2019-03-12T01:46:05.894Z,66.10
2019-03-12T01:48:46.182Z,66.00
2019-03-12T01:51:26.351Z,66.20
2019-03-12T01:53:55.245Z,67.70
2019-03-12T01:56:22.873Z,68.20
2019-03-12T01:58:50.467Z,68.60
2019-03-12T02:01:18.250Z,65.30
2019-03-12T02:03:46.036Z,65.50
2019-03-12T02:06:13.700Z,66.00
2019-03-12T02:08:41.324Z,66.40
2019-03-12T02:11:28.387Z,66.90
2019-03-12T02:14:34.913Z,67.80
2019-03-12T02:17:14.678Z,66.70
2019-03-12T02:19:54.887Z,68.10
2019-03-12T02:22:35.116Z,68.90
2019-03-12T02:25:15.151Z,69.50
2019-03-12T02:27:55.319Z,68.50
2019-03-12T02:30:35.511Z,66.20
2019-03-12T02:33:15.832Z,67.30
2019-03-12T02:35:55.709Z,68.00
2019-03-12T02:38:36.074Z,66.10
2019-03-12T02:41:15.998Z,66.00
2019-03-12T02:43:56.245Z,66.40
2019-03-12T02:46:36.345Z,67.50
2019-03-12T02:49:16.442Z,67.50
2019-03-12T02:51:56.405Z,65.90
2019-03-12T02:54:36.680Z,65.50
2019-03-12T02:57:16.744Z,65.40
2019-03-12T02:59:44.840Z,66.40
2019-03-12T03:02:31.864Z,66.60
2019-03-12T03:08:10.680Z,66.70
2019-03-12T03:10:50.686Z,67.30
2019-03-12T03:13:31.604Z,67.20
2019-03-12T03:16:12.034Z,66.70
2019-03-12T03:18:52.000Z,67.20
2019-03-12T03:21:32.085Z,68.30
2019-03-12T03:24:12.406Z,68.10
2019-03-12T03:26:52.348Z,67.40
2019-03-12T03:29:32.639Z,68.30
2019-03-12T03:32:12.786Z,69.40
2019-03-12T03:34:52.962Z,69.80
2019-03-12T03:37:33.139Z,70.00
2019-03-12T03:40:13.232Z,70.40
2019-03-12T03:42:53.626Z,69.70
2019-03-12T03:45:33.763Z,68.90
2019-03-12T03:48:14.054Z,70.60
2019-03-12T03:50:54.235Z,71.00
2019-03-12T03:53:34.355Z,71.30
2019-03-12T03:56:14.695Z,71.30
2019-03-12T03:58:55.113Z,71.30
2019-03-12T04:01:35.210Z,72.00
2019-03-12T04:04:15.177Z,72.60
2019-03-12T04:06:55.151Z,72.20
2019-03-12T04:09:35.233Z,73.00
2019-03-12T04:12:15.349Z,73.70
2019-03-12T04:17:53.762Z,74.80
2019-03-12T04:20:33.979Z,74.40
2019-03-12T04:23:16.075Z,74.60
2019-03-12T04:25:54.161Z,75.10
2019-03-12T04:28:41.187Z,75.40
2019-03-12T04:31:20.946Z,76.10
2019-03-12T04:34:00.910Z,75.90
2019-03-12T04:36:41.191Z,76.30
2019-03-12T04:39:21.182Z,76.80
2019-03-12T04:42:01.458Z,77.70
2019-03-12T04:44:41.551Z,77.30
2019-03-12T04:47:21.538Z,77.10
2019-03-12T04:53:00.214Z,79.30
2019-03-12T04:55:40.259Z,78.90
2019-03-12T04:58:20.533Z,79.20
2019-03-12T05:01:02.264Z,79.30
2019-03-12T05:03:42.895Z,80.10
2019-03-12T05:06:23.098Z,80.70
2019-03-12T05:09:04.810Z,80.90
2019-03-12T05:11:44.669Z,81.30
2019-03-12T05:14:24.515Z,81.50
2019-03-12T05:17:04.604Z,81.60
2019-03-12T05:19:44.634Z,81.30
2019-03-12T05:22:24.898Z,81.20
2019-03-12T05:25:04.919Z,81.50
2019-03-12T05:27:47.496Z,81.30
2019-03-12T05:30:27.237Z,81.30
2019-03-12T05:33:07.394Z,81.40
2019-03-12T05:35:47.433Z,81.60
2019-03-12T05:38:27.572Z,81.10
2019-03-12T05:41:07.752Z,81.50
2019-03-12T05:43:47.648Z,81.70
2019-03-12T05:46:27.926Z,81.40
2019-03-12T05:49:07.821Z,81.50
2019-03-12T05:51:48.065Z,81.60
2019-03-12T05:54:28.393Z,81.40
2019-03-12T05:57:08.517Z,81.70
2019-03-12T05:59:48.805Z,82.00
2019-03-12T06:02:29.037Z,82.40
2019-03-12T06:05:09.031Z,82.40
2019-03-12T06:07:49.431Z,82.40
2019-03-12T06:10:29.557Z,82.00
2019-03-12T06:13:09.857Z,82.50
2019-03-12T06:15:53.031Z,82.30
2019-03-12T06:18:32.273Z,82.50
2019-03-12T06:21:12.610Z,82.40
2019-03-12T06:23:52.654Z,82.00
2019-03-12T06:26:32.981Z,81.80
2019-03-12T06:29:13.393Z,81.90
2019-03-12T06:32:12.873Z,81.00
2019-03-12T06:35:06.737Z,80.30
2019-03-12T06:38:09.373Z,79.50
2019-03-12T06:41:00.005Z,78.20
2019-03-12T06:43:49.439Z,78.50
2019-03-12T06:46:48.530Z,77.90
2019-03-12T06:49:38.285Z,78.60
2019-03-12T06:52:37.843Z,77.80
2019-03-12T06:55:36.977Z,77.50
2019-03-12T06:58:36.069Z,77.70
2019-03-12T07:01:35.550Z,77.40
2019-03-12T07:04:34.758Z,75.80
2019-03-12T07:07:34.170Z,74.40
2019-03-12T07:10:36.717Z,74.40
2019-03-12T07:13:36.039Z,74.90
2019-03-12T07:16:38.240Z,74.40
2019-03-12T07:19:30.081Z,74.70
2019-03-12T07:22:15.188Z,75.00
2019-03-12T07:25:03.273Z,74.00
2019-03-12T07:27:48.321Z,73.80
2019-03-12T07:30:50.545Z,72.40
2019-03-12T07:33:49.930Z,69.20
2019-03-12T07:36:49.235Z,68.20
2019-03-12T07:39:39.939Z,65.40
2019-03-12T07:42:33.923Z,66.70
2019-03-12T07:45:33.235Z,62.00
2019-03-12T07:48:30.226Z,50.50
2019-03-12T07:51:27.290Z,47.50
2019-03-12T07:54:23.341Z,45.80
2019-03-12T07:57:22.808Z,43.60
2019-03-12T08:00:22.438Z,42.30
2019-03-12T08:03:21.506Z,42.00
2019-03-12T08:06:08.659Z,40.40
2019-03-12T08:09:15.145Z,41.00
2019-03-12T08:12:21.786Z,40.80
2019-03-12T08:15:23.353Z,41.90
2019-03-12T08:18:22.877Z,41.60
2019-03-12T08:21:22.869Z,41.40
2019-03-12T08:24:22.018Z,39.80
2019-03-12T08:27:15.206Z,41.10
2019-03-12T08:30:14.457Z,40.20
2019-03-12T08:33:17.659Z,39.60
2019-03-12T08:36:19.674Z,37.80
2019-03-12T08:39:07.849Z,36.60
2019-03-12T08:42:10.245Z,36.40
2019-03-12T08:45:05.757Z,37.60
2019-03-12T08:48:04.839Z,37.00
2019-03-12T08:51:05.333Z,38.40
2019-03-12T08:54:05.235Z,39.80
2019-03-12T08:56:48.753Z,39.40
2019-03-12T08:59:56.639Z,34.90
2019-03-12T09:02:51.258Z,35.40
2019-03-12T09:05:51.024Z,36.80
2019-03-12T09:08:38.503Z,36.00
2019-03-12T09:11:44.962Z,35.00
2019-03-12T09:14:51.009Z,35.00
2019-03-12T09:17:50.148Z,35.90
2019-03-12T09:20:40.165Z,36.60
2019-03-12T09:23:39.414Z,36.20
2019-03-12T09:26:41.274Z,34.30
2019-03-12T09:29:40.681Z,35.00
2019-03-12T09:32:39.946Z,33.60
2019-03-12T09:35:26.876Z,35.60
2019-03-12T09:38:26.333Z,34.60
2019-03-12T09:41:25.575Z,35.00
2019-03-12T09:44:25.104Z,33.90
2019-03-12T09:47:27.102Z,32.50
2019-03-12T09:50:19.366Z,33.00
2019-03-12T09:53:15.718Z,32.60
2019-03-12T09:56:11.215Z,33.80
2019-03-12T09:59:10.380Z,33.10
2019-03-12T10:02:12.703Z,33.60
2019-03-12T10:05:04.964Z,31.00
2019-03-12T10:08:04.162Z,30.90
2019-03-12T10:10:55.947Z,30.40
2019-03-12T10:13:55.331Z,29.50
2019-03-12T10:16:54.971Z,30.20
2019-03-12T10:19:54.948Z,30.20
2019-03-12T10:22:42.727Z,30.10
2019-03-12T10:25:42.577Z,29.20
2019-03-12T10:28:44.956Z,30.00
2019-03-12T10:31:44.031Z,28.50
2019-03-12T10:34:43.297Z,29.50
2019-03-12T10:37:38.657Z,29.40
2019-03-12T10:40:40.859Z,29.70
2019-03-12T10:43:28.981Z,29.50
2019-03-12T10:46:28.476Z,28.70
2019-03-12T10:49:08.352Z,28.30
2019-03-12T10:51:48.494Z,28.30
2019-03-12T10:54:28.635Z,28.70
2019-03-12T10:57:08.885Z,27.90
2019-03-12T10:59:49.977Z,27.30
2019-03-12T11:02:30.081Z,27.80
2019-03-12T11:05:10.292Z,28.20
2019-03-12T11:07:50.212Z,27.40
2019-03-12T11:10:30.456Z,27.50
2019-03-12T11:13:10.657Z,27.20
2019-03-12T11:15:50.953Z,26.60
2019-03-12T11:18:30.861Z,26.00
2019-03-12T11:21:11.002Z,26.90
2019-03-12T11:23:50.931Z,25.70
2019-03-12T11:26:30.969Z,26.70
2019-03-12T11:29:11.313Z,26.10
2019-03-12T11:31:52.323Z,26.80
2019-03-12T11:34:32.435Z,26.40
2019-03-12T11:37:12.338Z,25.10
2019-03-12T11:39:52.600Z,25.00
2019-03-12T11:42:32.754Z,25.20
2019-03-12T11:45:16.902Z,25.20
2019-03-12T11:47:55.102Z,23.30
2019-03-12T11:50:22.753Z,23.80
2019-03-12T11:53:09.798Z,23.80
2019-03-12T11:55:49.391Z,23.10
2019-03-12T11:58:29.427Z,24.20
2019-03-12T12:01:09.718Z,23.40
2019-03-12T12:03:49.777Z,23.40
2019-03-12T12:06:30.073Z,22.60
2019-03-12T12:09:10.296Z,21.90
2019-03-12T12:11:50.513Z,22.60
2019-03-12T12:14:30.525Z,21.90
2019-03-12T12:17:10.692Z,22.40
2019-03-12T12:19:50.906Z,20.80
2019-03-12T12:22:31.042Z,20.90
2019-03-12T12:25:11.158Z,22.10
2019-03-12T12:27:51.405Z,21.30
2019-03-12T12:30:31.610Z,21.30
2019-03-12T12:33:11.518Z,21.10
2019-03-12T12:35:51.871Z,20.20
2019-03-12T12:38:32.012Z,20.40
2019-03-12T12:41:12.261Z,20.90
2019-03-12T12:43:52.505Z,21.50
2019-03-12T12:46:32.494Z,20.50
2019-03-12T12:49:12.502Z,20.30
2019-03-12T12:51:52.669Z,19.60
2019-03-12T12:54:33.105Z,19.20
2019-03-12T12:57:01.009Z,20.60
2019-03-12T12:59:28.838Z,20.70
2019-03-12T13:01:56.536Z,22.10
2019-03-12T13:04:24.201Z,19.00
2019-03-12T13:06:51.917Z,19.10
2019-03-12T13:09:19.509Z,20.10
2019-03-12T13:11:47.118Z,19.30
2019-03-12T13:14:14.753Z,19.70
2019-03-12T13:16:42.510Z,20.80
2019-03-12T13:19:10.118Z,21.00
2019-03-12T13:21:59.579Z,21.40
2019-03-12T13:24:46.598Z,21.40
2019-03-12T13:27:26.779Z,21.20
2019-03-12T13:30:06.741Z,21.00
2019-03-12T13:35:45.753Z,22.50
2019-03-12T13:38:27.315Z,21.90
2019-03-12T13:41:07.128Z,21.70
2019-03-12T13:43:47.511Z,20.20
2019-03-12T13:46:27.642Z,20.60
2019-03-12T13:49:07.935Z,20.10
2019-03-12T13:51:48.366Z,19.90
2019-03-12T13:54:29.070Z,21.10
2019-03-12T13:57:09.265Z,20.70
2019-03-12T13:59:50.394Z,21.70
2019-03-12T14:02:30.481Z,23.00
2019-03-12T14:05:10.667Z,23.30
2019-03-12T14:07:50.977Z,22.70
2019-03-12T14:10:30.782Z,23.00
2019-03-12T14:13:11.014Z,24.10
2019-03-12T14:15:51.258Z,23.10
2019-03-12T14:18:31.329Z,23.20
2019-03-12T14:21:11.481Z,23.00
2019-03-12T14:23:51.768Z,23.40
2019-03-12T14:26:31.772Z,23.60
2019-03-12T14:29:11.769Z,23.70
2019-03-12T14:31:51.893Z,24.20
2019-03-12T14:37:35.974Z,24.00
2019-03-12T14:40:15.584Z,24.30
2019-03-12T14:42:55.690Z,25.00
2019-03-12T14:45:35.513Z,25.70
2019-03-12T14:48:15.690Z,26.20
2019-03-12T14:50:56.254Z,26.60
2019-03-12T14:53:36.270Z,27.00
2019-03-12T14:56:16.375Z,28.50
2019-03-12T14:58:56.645Z,28.40
2019-03-12T15:01:36.765Z,26.90
2019-03-12T15:04:16.908Z,27.40
2019-03-12T15:06:56.834Z,27.00
2019-03-12T15:09:36.881Z,27.10
2019-03-12T15:12:17.191Z,27.60
2019-03-12T15:14:58.103Z,27.60
2019-03-12T15:17:39.166Z,28.40
2019-03-12T15:20:17.346Z,28.20
2019-03-12T15:23:04.740Z,28.00
2019-03-12T15:25:32.389Z,28.30
2019-03-12T15:28:19.427Z,27.80
2019-03-12T15:33:58.546Z,28.40
2019-03-12T15:36:38.310Z,28.00
2019-03-12T15:39:18.105Z,28.60
2019-03-12T15:41:58.182Z,28.60
2019-03-12T15:44:38.869Z,28.40
2019-03-12T15:47:18.686Z,28.50
2019-03-12T15:49:58.646Z,28.20
2019-03-12T15:52:38.681Z,28.20
2019-03-12T15:55:18.953Z,28.20
2019-03-12T15:57:58.770Z,27.70
2019-03-12T16:00:39.190Z,28.70
2019-03-12T16:03:19.056Z,28.60
2019-03-12T16:05:59.081Z,28.80
2019-03-12T16:08:39.534Z,28.60
2019-03-12T16:11:19.420Z,28.70
2019-03-12T16:13:59.548Z,28.90
2019-03-12T16:16:39.605Z,28.40
2019-03-12T16:19:19.637Z,29.30
2019-03-12T16:21:59.920Z,29.20
2019-03-12T16:24:39.887Z,29.40
2019-03-12T16:27:20.669Z,29.00
2019-03-12T16:30:00.599Z,28.90
2019-03-12T16:32:40.403Z,29.00
2019-03-12T16:35:20.624Z,29.10
2019-03-12T16:38:00.691Z,29.50
2019-03-12T16:40:40.837Z,29.60
2019-03-12T16:43:22.198Z,29.50
2019-03-12T16:46:02.011Z,29.90
2019-03-12T16:48:42.265Z,30.30
2019-03-12T16:51:22.481Z,30.40
2019-03-12T16:54:05.266Z,30.20
2019-03-12T16:56:45.779Z,30.10
2019-03-12T16:59:25.984Z,30.90
2019-03-12T17:02:06.143Z,30.80
2019-03-12T17:04:46.174Z,31.20
2019-03-12T17:07:26.907Z,31.20
2019-03-12T17:10:07.535Z,31.70
2019-03-12T17:12:47.607Z,32.10
2019-03-12T17:18:40.050Z,32.80
2019-03-12T17:21:19.954Z,33.60
2019-03-12T17:24:00.155Z,33.70
2019-03-12T17:26:40.171Z,34.30
2019-03-12T17:29:20.374Z,34.40
2019-03-12T17:32:00.309Z,33.70
2019-03-12T17:34:40.465Z,34.00
2019-03-12T17:37:20.901Z,35.40
2019-03-12T17:40:00.810Z,37.10
2019-03-12T17:42:40.857Z,38.80
2019-03-12T17:45:20.788Z,39.50
2019-03-12T17:48:00.933Z,40.10
2019-03-12T17:50:41.041Z,40.90
2019-03-12T17:53:20.996Z,41.90
2019-03-12T17:56:01.187Z,42.00
2019-03-12T17:58:41.483Z,43.20
2019-03-12T18:01:29.303Z,42.90
2019-03-12T18:03:54.167Z,42.60
2019-03-12T18:06:40.083Z,42.90
2019-03-12T18:09:20.026Z,42.60
2019-03-12T18:12:00.805Z,42.70
2019-03-12T18:14:28.530Z,42.80
2019-03-12T18:17:15.610Z,43.00
2019-03-12T18:19:55.932Z,42.30
2019-03-12T18:22:38.841Z,42.40
2019-03-12T18:25:18.538Z,43.20
2019-03-12T18:27:59.141Z,43.30
2019-03-12T18:30:39.137Z,44.70
2019-03-12T18:33:19.295Z,45.10
2019-03-12T18:35:59.430Z,45.50
2019-03-12T18:38:40.009Z,45.70
2019-03-12T18:41:19.809Z,46.70
2019-03-12T18:43:59.860Z,46.70
2019-03-12T18:46:42.958Z,46.80
2019-03-12T18:49:21.980Z,45.40
2019-03-12T18:52:02.329Z,45.10
2019-03-12T18:54:42.558Z,46.10
2019-03-12T18:57:22.685Z,46.10
2019-03-12T19:00:02.956Z,46.10
2019-03-12T19:02:43.174Z,46.00
2019-03-12T19:05:23.579Z,46.30
2019-03-12T19:08:03.856Z,46.30
2019-03-12T19:10:43.972Z,45.70
2019-03-12T19:13:24.281Z,46.60
2019-03-12T19:16:04.464Z,45.80
2019-03-12T19:18:45.398Z,45.70
2019-03-12T19:21:25.951Z,46.00
2019-03-12T19:24:05.823Z,44.90
2019-03-12T19:26:46.320Z,44.40
2019-03-12T19:29:26.723Z,44.90
2019-03-12T19:35:07.614Z,45.50
2019-03-12T19:37:47.609Z,45.60
2019-03-12T19:40:29.955Z,45.40
2019-03-12T19:43:09.983Z,44.70
2019-03-12T19:45:50.201Z,44.20
2019-03-12T19:48:30.214Z,42.10
2019-03-12T19:51:10.341Z,40.20
2019-03-12T19:53:51.282Z,41.30
2019-03-12T19:56:31.368Z,43.30
2019-03-12T19:59:12.370Z,44.30
2019-03-12T20:01:52.476Z,44.20
2019-03-12T20:04:32.601Z,45.00
2019-03-12T20:07:13.090Z,45.20
2019-03-12T20:09:53.624Z,44.40
2019-03-12T20:12:33.451Z,45.10
2019-03-12T20:15:13.509Z,44.80
2019-03-12T20:17:53.777Z,45.10
2019-03-12T20:20:34.168Z,44.40
2019-03-12T20:23:14.232Z,44.40
2019-03-12T20:25:54.274Z,45.50
2019-03-12T20:28:34.646Z,45.90
2019-03-12T20:31:14.855Z,46.40
2019-03-12T20:33:55.243Z,47.20
2019-03-12T20:39:34.298Z,47.60
2019-03-12T20:42:14.376Z,46.40
2019-03-12T20:44:54.529Z,46.90
2019-03-12T20:47:34.647Z,46.20
2019-03-12T20:50:14.825Z,45.40
2019-03-12T20:52:54.890Z,43.30
2019-03-12T20:55:35.291Z,43.50
2019-03-12T21:01:28.584Z,44.00
2019-03-12T21:04:08.419Z,43.00
2019-03-12T21:06:48.583Z,43.70
2019-03-12T21:09:28.779Z,43.10
2019-03-12T21:12:08.675Z,42.70
2019-03-12T21:14:48.860Z,43.30
2019-03-12T21:17:29.652Z,44.00
2019-03-12T21:20:09.377Z,44.50
2019-03-12T21:22:49.586Z,43.90
2019-03-12T21:25:29.492Z,42.60
2019-03-12T21:28:09.758Z,42.40
2019-03-12T21:30:51.491Z,42.50
2019-03-12T21:33:31.444Z,41.40
2019-03-12T21:36:14.467Z,40.90
2019-03-12T21:38:55.089Z,39.50
2019-03-12T21:41:35.347Z,38.60
2019-03-12T21:44:15.189Z,39.10
2019-03-12T21:46:55.608Z,39.10
2019-03-12T21:49:35.478Z,39.30
2019-03-12T21:52:15.627Z,39.20
2019-03-12T21:54:56.031Z,39.30
2019-03-12T21:57:36.031Z,39.50
2019-03-12T22:00:16.100Z,39.40
2019-03-12T22:02:56.528Z,39.50
2019-03-12T22:05:36.411Z,40.20
2019-03-12T22:08:16.475Z,42.50
2019-03-12T22:10:56.680Z,44.20
2019-03-12T22:13:24.390Z,45.10
2019-03-12T22:16:11.713Z,46.20
2019-03-12T22:18:51.846Z,46.50
2019-03-12T22:24:27.987Z,48.40
2019-03-12T22:27:07.870Z,49.20
2019-03-12T22:29:47.844Z,49.30
2019-03-12T22:32:28.007Z,49.40
2019-03-12T22:35:08.208Z,49.50
2019-03-12T22:37:48.387Z,49.40
2019-03-12T22:40:28.359Z,48.40
2019-03-12T22:43:08.696Z,48.60
2019-03-12T22:45:48.750Z,49.50
2019-03-12T22:48:29.176Z,50.20
2019-03-12T22:51:09.342Z,50.80
2019-03-12T22:53:49.913Z,50.70
2019-03-12T22:56:29.868Z,50.30
2019-03-12T22:59:09.731Z,50.70
2019-03-12T23:01:49.874Z,50.00
2019-03-12T23:04:30.057Z,50.50
2019-03-12T23:07:10.234Z,50.10
2019-03-12T23:09:50.695Z,50.10
2019-03-12T23:12:30.702Z,50.00
2019-03-12T23:15:10.887Z,51.10
2019-03-12T23:17:51.131Z,51.30
2019-03-12T23:20:31.110Z,50.70
2019-03-12T23:23:11.151Z,51.60
2019-03-12T23:25:51.393Z,51.10
2019-03-12T23:28:31.427Z,50.60
2019-03-12T23:31:11.950Z,50.30
2019-03-12T23:33:52.074Z,49.90
2019-03-12T23:36:33.173Z,48.80
2019-03-12T23:39:12.837Z,47.60
2019-03-12T23:41:52.917Z,47.50
2019-03-12T23:44:33.283Z,47.00
2019-03-12T23:47:13.473Z,46.60
2019-03-12T23:49:53.638Z,46.70
2019-03-12T23:52:33.855Z,45.60
2019-03-12T23:55:14.062Z,45.00
2019-03-12T23:57:54.045Z,45.10
